sensor_id;sensor_type;location;lat;lon;timestamp;pressure;altitude;pressure_sealevel;temperature
77385;BMP280;66444;49.680;18.538;2023-04-21T00:00:39;97641.5891233088;;;6.282874526269734
77385;BMP280;66444;49.680;18.538;2023-04-21T00:05:49;97633.05744224429;;;6.313426489150151
77385;BMP280;66444;49.680;18.538;2023-04-21T00:11:00;97631.83956091697;;;6.3745297862682495
77385;BMP280;66444;49.680;18.538;2023-04-21T00:16:10;97632.4487307246;;;6.34397824248299
77385;BMP280;66444;49.680;18.538;2023-04-21T00:21:21;97629.3328392971;;;6.323610430210829
77385;BMP280;66444;49.680;18.538;2023-04-21T00:26:31;97626.04644125137;;;6.267598466249183
77385;BMP280;66444;49.680;18.538;2023-04-21T00:31:41;97631.15720823282;;;6.231954122474417
77385;BMP280;66444;49.680;18.538;2023-04-21T00:36:51;97628.04096002431;;;6.2115857979748395
77385;BMP280;66444;49.680;18.538;2023-04-21T00:42:01;97628.04096002431;;;6.2115857979748395
77385;BMP280;66444;49.680;18.538;2023-04-21T00:47:13;97627.26190331591;;;6.20649370229803
77385;BMP280;66444;49.680;18.538;2023-04-21T00:52:23;97631.15720823282;;;6.231954122474417
77385;BMP280;66444;49.680;18.538;2023-04-21T00:57:34;97628.04096002431;;;6.2115857979748395
77385;BMP280;66444;49.680;18.538;2023-04-21T01:02:45;97624.57995622134;;;6.119927185215056
77385;BMP280;66444;49.680;18.538;2023-04-21T01:07:56;97620.16288644478;;;5.987528081750497
77385;BMP280;66444;49.680;18.538;2023-04-21T01:13:06;97617.90158499392;;;5.83475499600172
77385;BMP280;66444;49.680;18.538;2023-04-21T01:18:16;97616.58953190419;;;5.722718070307747
77385;BMP280;66444;49.680;18.538;2023-04-21T01:23:26;97613.47196451906;;;5.702347417501732
77385;BMP280;66444;49.680;18.538;2023-04-21T01:28:37;97612.87083170158;;;5.732903361786157
77385;BMP280;66444;49.680;18.538;2023-04-21T01:33:52;97614.73020221159;;;5.727810718957334
77385;BMP280;66444;49.680;18.538;2023-04-21T01:39:04;97606.15720084275;;;5.671791263669729
77385;BMP280;66444;49.680;18.538;2023-04-21T01:44:14;97617.91084196065;;;5.610678327362985
77385;BMP280;66444;49.680;18.538;2023-04-21T01:49:24;97622.22703731309;;;5.569935904163867
77385;BMP280;66444;49.680;18.538;2023-04-21T01:54:40;97614.73042626338;;;5.50372867193073
77385;BMP280;66444;49.680;18.538;2023-04-21T01:59:50;97624.3193987955;;;5.46298527084291
77385;BMP280;66444;49.680;18.538;2023-04-21T02:05:05;97622.57701867046;;;5.417148499330506
77385;BMP280;66444;49.680;18.538;2023-04-21T02:10:16;97622.09545863105;;;5.39677644954063
77385;BMP280;66444;49.680;18.538;2023-04-21T02:15:26;97620.53599491998;;;5.386590389721095
77385;BMP280;66444;49.680;18.538;2023-04-21T02:20:37;97625.51252153123;;;5.401869470719248
77385;BMP280;66444;49.680;18.538;2023-04-21T02:25:47;97626.77390188271;;;5.427334489300847
77385;BMP280;66444;49.680;18.538;2023-04-21T02:30:57;97627.85180795658;;;5.417148499330506
77385;BMP280;66444;49.680;18.538;2023-04-21T02:36:07;97616.8874826566;;;5.483357017952949
77385;BMP280;66444;49.680;18.538;2023-04-21T02:41:18;97626.06114752864;;;5.508821570873261
77385;BMP280;66444;49.680;18.538;2023-04-21T02:46:28;97620.05426255838;;;5.366218200232834
77385;BMP280;66444;49.680;18.538;2023-04-21T02:51:38;97623.39952862982;;;5.284728510957211
77385;BMP280;66444;49.680;18.538;2023-04-21T02:56:48;97626.03635146016;;;5.284728510957211
77385;BMP280;66444;49.680;18.538;2023-04-21T03:02:04;97621.72735963148;;;5.325473541859537
77385;BMP280;66444;49.680;18.538;2023-04-21T03:07:14;97624.3643567409;;;5.325473541859537
77385;BMP280;66444;49.680;18.538;2023-04-21T03:12:24;97618.12589016325;;;5.284728510957211
77385;BMP280;66444;49.680;18.538;2023-04-21T03:17:35;97622.43412352561;;;5.243983107525855
77385;BMP280;66444;49.680;18.538;2023-04-21T03:22:46;97626.14758598876;;;5.233796698460355
77385;BMP280;66444;49.680;18.538;2023-04-21T03:27:56;97625.553632687;;;5.264355855807662
77385;BMP280;66444;49.680;18.538;2023-04-21T03:33:06;97630.23296175052;;;5.294914803607389
77385;BMP280;66444;49.680;18.538;2023-04-21T03:38:17;97623.76903399058;;;5.3560320705641065
77385;BMP280;66444;49.680;18.538;2023-04-21T03:43:27;97625.32860773832;;;5.366218200232834
77385;BMP280;66444;49.680;18.538;2023-04-21T03:48:43;97624.73276373264;;;5.39677644954063
77385;BMP280;66444;49.680;18.538;2023-04-21T03:53:54;97628.67317668856;;;5.284728510957211
77385;BMP280;66444;49.680;18.538;2023-04-21T03:59:04;97632.49745030164;;;5.223610266111791
77385;BMP280;66444;49.680;18.538;2023-04-21T04:04:11;97632.01403386822;;;5.20323733156547
77385;BMP280;66444;49.680;18.538;2023-04-21T04:09:18;97637.47402847852;;;5.238889905903489
77385;BMP280;66444;49.680;18.538;2023-04-21T04:14:25;97635.61737828128;;;5.243983107525855
77385;BMP280;66444;49.680;18.538;2023-04-21T04:19:32;97649.60754602875;;;5.111557973595336
77385;BMP280;66444;49.680;18.538;2023-04-21T04:24:39;97645.4110495882;;;5.10137126185
77385;BMP280;66444;49.680;18.538;2023-04-21T04:29:46;97655.44646260102;;;5.2185170412063595
77385;BMP280;66444;49.680;18.538;2023-04-21T04:34:54;97664.77560165712;;;5.417148499330506
77385;BMP280;66444;49.680;18.538;2023-04-21T04:40:00;97662.94344621181;;;5.646327642071992
77385;BMP280;66444;49.680;18.538;2023-04-21T04:45:08;97661.44388364165;;;5.946789104444906
77385;BMP280;66444;49.680;18.538;2023-04-21T04:50:15;97658.04265674976;;;6.252322353841737
77385;BMP280;66444;49.680;18.538;2023-04-21T04:55:22;97668.28393101295;;;6.57820138973184
77385;BMP280;66444;49.680;18.538;2023-04-21T05:00:29;97668.05863612676;;;6.853143281303346
77385;BMP280;66444;49.680;18.538;2023-04-21T05:05:36;97664.06832059486;;;7.138250277936459
77385;BMP280;66444;49.680;18.538;2023-04-21T05:10:43;97664.24222881378;;;7.4335204238537695
77385;BMP280;66444;49.680;18.538;2023-04-21T05:15:55;97659.24631476196;;;7.677867115894332
77385;BMP280;66444;49.680;18.538;2023-04-21T05:21:13;97666.99890025475;;;7.901839802367613
77385;BMP280;66444;49.680;18.538;2023-04-21T05:26:27;97664.45534946647;;;8.110531481169165
77385;BMP280;66444;49.680;18.538;2023-04-21T05:31:35;97656.27373413289;;;8.334482397977263
77385;BMP280;66444;49.680;18.538;2023-04-21T05:36:42;97662.73532934519;;;8.53297492605634
77385;BMP280;66444;49.680;18.538;2023-04-21T05:41:49;97661.22903365578;;;8.731458600750193
77385;BMP280;66444;49.680;18.538;2023-04-21T05:46:57;97657.96165084894;;;8.970645111612976
77385;BMP280;66444;49.680;18.538;2023-04-21T05:52:04;97659.97486318668;;;9.209818764403462
77385;BMP280;66444;49.680;18.538;2023-04-21T05:57:14;97658.73383623689;;;9.393006908614188
77385;BMP280;66444;49.680;18.538;2023-04-21T06:02:26;97660.25607519367;;;9.611805083183572
77385;BMP280;66444;49.680;18.538;2023-04-21T06:07:38;97663.19133883645;;;9.805152651388198
77385;BMP280;66444;49.680;18.538;2023-04-21T06:12:46;97669.87490687416;;;9.988316278532148
77385;BMP280;66444;49.680;18.538;2023-04-21T06:17:53;97664.3645822369;;;10.161297221900895
77385;BMP280;66444;49.680;18.538;2023-04-21T06:23:01;97654.29653099646;;;10.339358811499551
77385;BMP280;66444;49.680;18.538;2023-04-21T06:28:08;97644.87600887056;;;10.486890155496075
77385;BMP280;66444;49.680;18.538;2023-04-21T06:33:16;97654.28805127063;;;10.583545967983081
77385;BMP280;66444;49.680;18.538;2023-04-21T06:38:23;97652.17667878419;;;10.639503635838627
77385;BMP280;66444;49.680;18.538;2023-04-21T06:43:30;97658.92548912791;;;10.736156130488961
77385;BMP280;66444;49.680;18.538;2023-04-21T06:48:42;97651.2575318686;;;10.842980127222836
77385;BMP280;66444;49.680;18.538;2023-04-21T06:53:50;97653.2176507959;;;10.995581383956596
77385;BMP280;66444;49.680;18.538;2023-04-21T06:58:57;97662.91690593759;;;11.199041577195748
77385;BMP280;66444;49.680;18.538;2023-04-21T07:04:04;97652.41258552634;;;11.392320134397597
77385;BMP280;66444;49.680;18.538;2023-04-21T07:09:16;97659.91299599026;;;11.494042314775289
77385;BMP280;66444;49.680;18.538;2023-04-21T07:14:23;97661.15214289758;;;11.677136372122913
77385;BMP280;66444;49.680;18.538;2023-04-21T07:19:32;97655.93006084893;;;11.870394137548283
77385;BMP280;66444;49.680;18.538;2023-04-21T07:24:39;97656.70927652992;;;12.033130999701097
77385;BMP280;66444;49.680;18.538;2023-04-21T07:29:47;97645.16334371253;;;12.30773593876511
77385;BMP280;66444;49.680;18.538;2023-04-21T07:34:54;97652.6015189096;;;12.567069462779909
77385;BMP280;66444;49.680;18.538;2023-04-21T07:40:06;97652.43200134413;;;12.846725903498008
77385;BMP280;66444;49.680;18.538;2023-04-21T07:45:14;97648.22439473394;;;13.029764221189543
77385;BMP280;66444;49.680;18.538;2023-04-21T07:50:21;97645.6788617995;;;13.294139584386722
77385;BMP280;66444;49.680;18.538;2023-04-21T07:55:29;97634.6661329411;;;13.538164411345496
77385;BMP280;66444;49.680;18.538;2023-04-21T08:00:36;97639.66062961497;;;13.782175827259199
77385;BMP280;66444;49.680;18.538;2023-04-21T08:05:43;97631.61897379134;;;14.010924349725247
77385;BMP280;66444;49.680;18.538;2023-04-21T08:10:50;97639.91048628934;;;14.188831718126313
77385;BMP280;66444;49.680;18.538;2023-04-21T08:15:57;97641.1458797778;;;14.249826888693496
77385;BMP280;66444;49.680;18.538;2023-04-21T08:21:05;97639.80359974883;;;14.381980216130614
77385;BMP280;66444;49.680;18.538;2023-04-21T08:26:12;97628.97242411973;;;14.57512030894868
77385;BMP280;66444;49.680;18.538;2023-04-21T08:31:20;97624.28741168165;;;14.808910228218883
77385;BMP280;66444;49.680;18.538;2023-04-21T08:36:27;97626.6832074544;;;14.89530773353763
77385;BMP280;66444;49.680;18.538;2023-04-21T08:41:36;97629.96335293411;;;15.093507418874651
77385;BMP280;66444;49.680;18.538;2023-04-21T08:46:45;97626.46155748794;;;15.423820553580299
77385;BMP280;66444;49.680;18.538;2023-04-21T08:51:54;97621.31262923268;;;15.672809582343325
77385;BMP280;66444;49.680;18.538;2023-04-21T08:57:01;97613.84693225019;;;15.94210851257667
77385;BMP280;66444;49.680;18.538;2023-04-21T09:02:10;97610.88044166681;;;16.09961540256627
77385;BMP280;66444;49.680;18.538;2023-04-21T09:07:35;97605.59286381747;;;16.241874882346018
77385;BMP280;66444;49.680;18.538;2023-04-21T09:12:44;97598.00198605543;;;16.404451557016
77385;BMP280;66444;49.680;18.538;2023-04-21T09:17:57;97597.30545426937;;;16.5771827429533
77385;BMP280;66444;49.680;18.538;2023-04-21T09:23:04;97597.72135023383;;;16.668625940801576
77385;BMP280;66444;49.680;18.538;2023-04-21T09:28:12;97582.75286894878;;;16.658465678617357
77385;BMP280;66444;49.680;18.538;2023-04-21T09:33:20;97581.28691314199;;;16.93278458523564
77385;BMP280;66444;49.680;18.538;2023-04-21T09:38:28;97572.03782800946;;;16.76514727030881
77385;BMP280;66444;49.680;18.538;2023-04-21T09:43:36;97577.44989108485;;;16.94294421877712
77385;BMP280;66444;49.680;18.538;2023-04-21T09:48:44;97568.26010845683;;;17.13089323961176
77385;BMP280;66444;49.680;18.538;2023-04-21T09:53:52;97565.57961596976;;;17.30867551974952
77385;BMP280;66444;49.680;18.538;2023-04-21T09:59:05;97562.1222918353;;;17.339151766104624
77385;BMP280;66444;49.680;18.538;2023-04-21T10:04:18;97562.88967067545;;;17.379786435281858
77385;BMP280;66444;49.680;18.538;2023-04-21T10:09:30;97555.15953738285;;;17.755639464966954
77385;BMP280;66444;49.680;18.538;2023-04-21T10:14:42;97564.26784244827;;;18.172088024998082
77385;BMP280;66444;49.680;18.538;2023-04-21T10:19:51;97552.74368150502;;;18.13146062013693
77385;BMP280;66444;49.680;18.538;2023-04-21T10:25:00;97549.55172905423;;;18.395532092778012
77385;BMP280;66444;49.680;18.538;2023-04-21T10:30:17;97543.41509994294;;;18.354906736826525
77385;BMP280;66444;49.680;18.538;2023-04-21T10:35:36;97544.87564040483;;;18.507249900791795
77385;BMP280;66444;49.680;18.538;2023-04-21T10:41:28;97548.83459761254;;;18.28381146751344
77385;BMP280;66444;49.680;18.538;2023-04-21T10:46:38;97541.5972955813;;;18.11114677800797
77385;BMP280;66444;49.680;18.538;2023-04-21T10:52:19;97540.14838005022;;;18.69005478248
77385;BMP280;66444;49.680;18.538;2023-04-21T10:57:27;97530.52251630258;;;19.197806539293378
77385;BMP280;66444;49.680;18.538;2023-04-21T11:02:38;97528.28473407488;;;19.11149284718558
77385;BMP280;66444;49.680;18.538;2023-04-21T11:07:46;97520.46858523537;;;19.238424165267496
77385;BMP280;66444;49.680;18.538;2023-04-21T11:12:58;97507.71537308712;;;19.654733352875336
77385;BMP280;66444;49.680;18.538;2023-04-21T11:18:06;97520.19340786817;;;19.522737116273493
77385;BMP280;66444;49.680;18.538;2023-04-21T11:23:16;97503.59996316016;;;19.878102635452525
77385;BMP280;66444;49.680;18.538;2023-04-21T11:28:23;97502.70315197748;;;19.979630402242766
77385;BMP280;66444;49.680;18.538;2023-04-21T11:33:34;97504.23347575303;;;19.989783050864936
77385;BMP280;66444;49.680;18.538;2023-04-21T11:38:47;97505.40355335911;;;19.979630402242766
77385;BMP280;66444;49.680;18.538;2023-04-21T11:43:55;97494.67929062022;;;20.21313542993739
77385;BMP280;66444;49.680;18.538;2023-04-21T11:49:03;97484.27902783715;;;20.466931272810324
77385;BMP280;66444;49.680;18.538;2023-04-21T11:54:12;97494.05435832546;;;20.63950413390994
77385;BMP280;66444;49.680;18.538;2023-04-21T11:59:21;97490.18610577591;;;20.111613018251955
77385;BMP280;66444;49.680;18.538;2023-04-21T12:04:29;97487.64774407262;;;20.274047759361565
77385;BMP280;66444;49.680;18.538;2023-04-21T12:09:42;97475.48539251919;;;20.659806381072848
77385;BMP280;66444;49.680;18.538;2023-04-21T12:14:50;97474.98563457369;;;21.17748221666552
77385;BMP280;66444;49.680;18.538;2023-04-21T12:19:58;97470.785550801;;;20.700410596001895
77385;BMP280;66444;49.680;18.538;2023-04-21T12:25:11;97475.41197727666;;;20.19283113386482
77385;BMP280;66444;49.680;18.538;2023-04-21T12:30:19;97461.83289053813;;;19.654733352875336
77385;BMP280;66444;49.680;18.538;2023-04-21T12:35:27;97466.4274819693;;;19.989783050864936
77385;BMP280;66444;49.680;18.538;2023-04-21T12:40:35;97454.30518458992;;;20.375566445756704
77385;BMP280;66444;49.680;18.538;2023-04-21T12:45:48;97447.37239188324;;;20.36541468189098
77385;BMP280;66444;49.680;18.538;2023-04-21T12:50:55;97452.56686059858;;;19.96947773033753
77385;BMP280;66444;49.680;18.538;2023-04-21T12:56:03;97455.81155857239;;;19.847643851395695
77385;BMP280;66444;49.680;18.538;2023-04-21T13:01:11;97454.51508683446;;;20.233439632877708
77385;BMP280;66444;49.680;18.538;2023-04-21T13:06:18;97449.03862839701;;;20.771467075729742
77385;BMP280;66444;49.680;18.538;2023-04-21T13:11:26;97444.87648290671;;;21.55301305530593
77385;BMP280;66444;49.680;18.538;2023-04-21T13:16:34;97448.15075722433;;;22.96350627229549
77385;BMP280;66444;49.680;18.538;2023-04-21T13:21:42;97430.28581112056;;;24.038831862574444
77385;BMP280;66444;49.680;18.538;2023-04-21T13:26:49;97413.78156779468;;;24.454689521715046
77385;BMP280;66444;49.680;18.538;2023-04-21T13:31:57;97419.13730096062;;;24.363407046860083
77385;BMP280;66444;49.680;18.538;2023-04-21T13:37:05;97423.58714574845;;;22.872192993946374
77385;BMP280;66444;49.680;18.538;2023-04-21T13:42:14;97429.75812955979;;;22.101027883589268
77385;BMP280;66444;49.680;18.538;2023-04-21T13:47:22;97415.44458000029;;;22.42067184653133
77385;BMP280;66444;49.680;18.538;2023-04-21T13:52:30;97404.57723358038;;;24.30255101588555
77385;BMP280;66444;49.680;18.538;2023-04-21T13:57:38;97398.81596948834;;;25.063191158138217
77385;BMP280;66444;49.680;18.538;2023-04-21T14:02:46;97402.64818151992;;;25.889604961220176
77385;BMP280;66444;49.680;18.538;2023-04-21T14:07:53;97398.4717096268;;;26.335702729877084
77385;BMP280;66444;49.680;18.538;2023-04-21T14:13:01;97397.4128005279;;;26.401599715277552
77385;BMP280;66444;49.680;18.538;2023-04-21T14:18:14;97386.5930774899;;;26.913535091700034
77385;BMP280;66444;49.680;18.538;2023-04-21T14:23:26;97392.30668699912;;;24.81980056185275
77385;BMP280;66444;49.680;18.538;2023-04-21T14:28:34;97396.8932200758;;;22.4054512293078
77385;BMP280;66444;49.680;18.538;2023-04-21T14:33:42;97401.71451252881;;;23.739592993911355
77385;BMP280;66444;49.680;18.538;2023-04-21T14:38:49;97384.22043036281;;;23.622935064602643
77385;BMP280;66444;49.680;18.538;2023-04-21T14:43:57;97393.34768671296;;;23.683800455369056
77385;BMP280;66444;49.680;18.538;2023-04-21T14:49:05;97384.32807333626;;;24.657532713748516
77385;BMP280;66444;49.680;18.538;2023-04-21T14:54:13;97371.90327452436;;;25.392761213844643
77385;BMP280;66444;49.680;18.538;2023-04-21T14:59:30;97378.76102952888;;;26.568872260255738
77385;BMP280;66444;49.680;18.538;2023-04-21T15:04:38;97365.97120199887;;;27.324054221389815
77385;BMP280;66444;49.680;18.538;2023-04-21T15:09:46;97366.22321588859;;;27.43554664934054
77385;BMP280;66444;49.680;18.538;2023-04-21T15:14:54;97364.6782168341;;;27.754804835189134
77385;BMP280;66444;49.680;18.538;2023-04-21T15:20:02;97354.14683480248;;;27.830815283814445
77385;BMP280;66444;49.680;18.538;2023-04-21T15:25:11;97362.4522351777;;;26.989560034032912
77385;BMP280;66444;49.680;18.538;2023-04-21T15:30:19;97361.50233990964;;;27.111197217646986
77385;BMP280;66444;49.680;18.538;2023-04-21T15:35:27;97357.58469210559;;;27.0301061344333
77385;BMP280;66444;49.680;18.538;2023-04-21T15:40:35;97354.02987108877;;;27.207490943558515
77385;BMP280;66444;49.680;18.538;2023-04-21T15:45:43;97348.55754626385;;;27.53690095730126
77385;BMP280;66444;49.680;18.538;2023-04-21T15:50:51;97349.14190943865;;;27.577442028559744
77385;BMP280;66444;49.680;18.538;2023-04-21T15:55:59;97349.0949935219;;;27.009833130799233
77385;BMP280;66444;49.680;18.538;2023-04-21T16:01:07;97349.12307559134;;;26.918603461934254
77385;BMP280;66444;49.680;18.538;2023-04-21T16:06:15;97342.74263684708;;;26.94901356110349
77385;BMP280;66444;49.680;18.538;2023-04-21T16:11:23;97338.52498454701;;;26.84764574896544
77385;BMP280;66444;49.680;18.538;2023-04-21T16:16:36;97335.19904590992;;;26.80709797218442
77385;BMP280;66444;49.680;18.538;2023-04-21T16:21:44;97336.78761021004;;;26.3610478406772
77385;BMP280;66444;49.680;18.538;2023-04-21T16:26:53;97330.7307364886;;;26.138005871418862
77385;BMP280;66444;49.680;18.538;2023-04-21T16:32:00;97327.39803322933;;;26.18869821759872
77385;BMP280;66444;49.680;18.538;2023-04-21T16:37:08;97327.3913634154;;;26.006203047232702
77385;BMP280;66444;49.680;18.538;2023-04-21T16:42:16;97321.0143552874;;;25.271076672477648
77385;BMP280;66444;49.680;18.538;2023-04-21T16:47:24;97320.5507427125;;;24.66767462887801
77385;BMP280;66444;49.680;18.538;2023-04-21T16:52:31;97322.48803679249;;;24.226479798462243
77385;BMP280;66444;49.680;18.538;2023-04-21T16:57:40;97317.2441485278;;;23.937397228041664
77385;BMP280;66444;49.680;18.538;2023-04-21T17:02:47;97316.96493153289;;;23.663512084912508
77385;BMP280;66444;49.680;18.538;2023-04-21T17:07:55;97317.29330970478;;;23.176563254278154
77385;BMP280;66444;49.680;18.538;2023-04-21T17:13:02;97318.9013627445;;;22.608388484921306
77385;BMP280;66444;49.680;18.538;2023-04-21T17:18:10;97325.28078127682;;;21.928512019431217
77385;BMP280;66444;49.680;18.538;2023-04-21T17:23:18;97317.10472959753;;;21.081056993827225
77385;BMP280;66444;49.680;18.538;2023-04-21T17:28:25;97325.66987247975;;;20.202983293542637
77385;BMP280;66444;49.680;18.538;2023-04-21T17:33:33;97329.0595468589;;;19.167343075340614
77385;BMP280;66444;49.680;18.538;2023-04-21T17:38:41;97327.32922012934;;;18.172088024998082
77385;BMP280;66444;49.680;18.538;2023-04-21T17:43:48;97330.09967471744;;;17.369627802912145
77385;BMP280;66444;49.680;18.538;2023-04-21T17:48:56;97333.33618057134;;;16.749907200084998
77385;BMP280;66444;49.680;18.538;2023-04-21T17:54:04;97326.44489710948;;;16.241874882346018
77385;BMP280;66444;49.680;18.538;2023-04-21T17:59:11;97334.03012894379;;;15.794758293358608
77385;BMP280;66444;49.680;18.538;2023-04-21T18:04:20;97332.36639522493;;;15.428902102028951
77385;BMP280;66444;49.680;18.538;2023-04-21T18:09:27;97338.28865420459;;;15.042687830748037
77385;BMP280;66444;49.680;18.538;2023-04-21T18:14:35;97343.2540392699;;;14.509047012543306
77385;BMP280;66444;49.680;18.538;2023-04-21T18:19:43;97350.51038323517;;;14.09733739066869
77385;BMP280;66444;49.680;18.538;2023-04-21T18:24:51;97357.72760998528;;;13.721174230566248
77385;BMP280;66444;49.680;18.538;2023-04-21T18:29:58;97360.3512495428;;;13.385650466103106
77385;BMP280;66444;49.680;18.538;2023-04-21T18:35:12;97357.68878048645;;;13.121280551142991
77385;BMP280;66444;49.680;18.538;2023-04-21T18:40:19;97357.2544673439;;;12.83655688688159
77385;BMP280;66444;49.680;18.538;2023-04-21T18:45:32;97363.07343194836;;;12.66368004209362
77385;BMP280;66444;49.680;18.538;2023-04-21T18:50:45;97362.41520402856;;;12.500966276740655
77385;BMP280;66444;49.680;18.538;2023-04-21T18:55:53;97356.98884837661;;;12.236543695488944
77385;BMP280;66444;49.680;18.538;2023-04-21T19:01:01;97356.58614259255;;;12.02296012043953
77385;BMP280;66444;49.680;18.538;2023-04-21T19:06:09;97362.46916150459;;;11.727994493721052
77385;BMP280;66444;49.680;18.538;2023-04-21T19:11:17;97364.68192542867;;;11.514386471454054
77385;BMP280;66444;49.680;18.538;2023-04-21T19:16:25;97360.43014014431;;;11.310940713714809
77385;BMP280;66444;49.680;18.538;2023-04-21T19:21:38;97359.25264634032;;;11.127831568941474
77385;BMP280;66444;49.680;18.538;2023-04-21T19:26:46;97362.61111227704;;;10.93962819809094
77385;BMP280;66444;49.680;18.538;2023-04-21T19:31:53;97362.60757902729;;;10.781938157696278
77385;BMP280;66444;49.680;18.538;2023-04-21T19:37:01;97364.73053770098;;;10.568284663604572
77385;BMP280;66444;49.680;18.538;2023-04-21T19:42:11;97363.49509060079;;;10.385144924884662
77385;BMP280;66444;49.680;18.538;2023-04-21T19:47:19;97373.9886824769;;;10.191822572238744
77385;BMP280;66444;49.680;18.538;2023-04-21T19:52:27;97366.49551091282;;;10.090070589538664
77385;BMP280;66444;49.680;18.538;2023-04-21T19:57:45;97370.73807424992;;;9.978140719374641
77385;BMP280;66444;49.680;18.538;2023-04-21T20:02:56;97374.73986591127;;;9.917086875485257
77385;BMP280;66444;49.680;18.538;2023-04-21T20:08:08;97376.88137306487;;;9.739008376561106
77385;BMP280;66444;49.680;18.538;2023-04-21T20:13:20;97380.78166602568;;;9.52021645931527
77385;BMP280;66444;49.680;18.538;2023-04-21T20:18:31;97378.79784908607;;;9.367564561916515
77385;BMP280;66444;49.680;18.538;2023-04-21T20:23:43;97388.74940978164;;;9.275970908906311
77385;BMP280;66444;49.680;18.538;2023-04-21T20:28:55;97388.96797451958;;;9.225084731215611
77385;BMP280;66444;49.680;18.538;2023-04-21T20:34:07;97386.30415510022;;;9.102955529885367
77385;BMP280;66444;49.680;18.538;2023-04-21T20:39:18;97394.24533217854;;;8.980822975793853
77385;BMP280;66444;49.680;18.538;2023-04-21T20:44:30;97396.75391146108;;;8.82306346455589
77385;BMP280;66444;49.680;18.538;2023-04-21T20:49:42;97399.4930619775;;;8.736547809327021
77385;BMP280;66444;49.680;18.538;2023-04-21T20:54:53;97385.78806157506;;;8.716190940095112
77385;BMP280;66444;49.680;18.538;2023-04-21T21:00:07;97399.0060169475;;;8.594047768926249
77385;BMP280;66444;49.680;18.538;2023-04-21T21:05:20;97395.28496148967;;;8.3955579649657
77385;BMP280;66444;49.680;18.538;2023-04-21T21:10:32;97406.7983451205;;;8.227598138852045
77385;BMP280;66444;49.680;18.538;2023-04-21T21:15:48;97401.88736763323;;;8.12580121983774
77385;BMP280;66444;49.680;18.538;2023-04-21T21:21:00;97406.79187693418;;;8.018911949032917
77385;BMP280;66444;49.680;18.538;2023-04-21T21:26:12;97392.83258899338;;;7.927290530968458
77385;BMP280;66444;49.680;18.538;2023-04-21T21:31:23;97398.63770338487;;;7.861118333926425
77385;BMP280;66444;49.680;18.538;2023-04-21T21:36:35;97393.84988605836;;;7.794945153174922
77385;BMP280;66444;49.680;18.538;2023-04-21T21:41:47;97401.20138457423;;;7.73895169342868
77385;BMP280;66444;49.680;18.538;2023-04-21T21:47:03;97397.8256676242;;;7.64732451280579
77385;BMP280;66444;49.680;18.538;2023-04-21T21:52:15;97400.05892371567;;;7.540423751808703
77385;BMP280;66444;49.680;18.538;2023-04-21T21:57:27;97393.71257722205;;;7.464064493775368
77385;BMP280;66444;49.680;18.538;2023-04-21T22:02:39;97400.59380616008;;;7.387703926069662
77385;BMP280;66444;49.680;18.538;2023-04-21T22:07:51;97402.00475687557;;;7.362250112462789
77385;BMP280;66444;49.680;18.538;2023-04-21T22:13:03;97402.6391965551;;;7.33170534404926
77385;BMP280;66444;49.680;18.538;2023-04-21T22:18:15;97402.35433287227;;;7.260433402843773
77385;BMP280;66444;49.680;18.538;2023-04-21T22:23:32;97399.88249467747;;;7.209524174919352
77385;BMP280;66444;49.680;18.538;2023-04-21T22:28:43;97390.85503355393;;;7.219706067070365